• Join FlightAware (Why Join?)
  • Login
  • US Flag 
06:21AM EDT


 

Airport Tracker/Info


-or-


 

Live Flight TrackerFlight Track Log ✈ CSJ405 ✈ 01-May-2013 ✈ KROC - CYHM

Flight Track Log - Related Links

Times and Time Zones

All times are in EDT time to prevent confusion due to time zone crossing. See the CSJ405 flight status page for this flight to view local times or setup timezone preferences in your user account.

Time Position Orientation Groundspeed Altitude Reporting Facility
EDT Latitude Longitude Course Direction KTS MPH feet Rate Location/Type
09:38PM 43.1383 -77.6642 346° North 115 132 1,500  Level Cleveland Center
09:39PM 43.1681 -77.6825 336° Northwest 135 155 2,700 1,140 Climbing Cleveland Center
09:40PM 43.1875 -77.7186 306° West 112 129 3,800 660 Climbing Cleveland Center
09:41PM 43.1867 -77.7700 269° West 156 180 4,100 60 Climbing Cleveland Center
09:43PM 43.2000 -77.8833 279° West 175 201 4,100  Level Buffalo TRACON
09:44PM 43.1833 -77.9000 216° Southwest 170 196 4,100  Level Toronto Center
09:46PM 43.1833 -78.0667 270° West 171 197 4,100  Level Buffalo TRACON
09:47PM 43.2000 -78.1500 285° West 172 198 4,100  Level Buffalo TRACON
09:47PM 43.1667 -78.1500 180° South 170 196 4,100  Level Toronto Center
09:48PM 43.1667 -78.2000 270° West 170 196 4,100  Level Toronto Center
09:49PM 43.1667 -78.2667 270° West 170 196 4,100  Level Toronto Center
09:50PM 43.1667 -78.3333 270° West 170 196 4,100  Level Toronto Center
09:51PM 43.1667 -78.4000 270° West 170 196 4,100  Level Toronto Center
09:52PM 43.1667 -78.4667 270° West 170 196 4,100  Level Toronto Center
09:53PM 43.1833 -78.5333 289° West 170 196 4,100  Level Toronto Center
09:54PM 43.1833 -78.5833 270° West 170 196 4,100  Level Toronto Center
09:55PM 43.1833 -78.6500 270° West 170 196 4,100  Level Toronto Center
09:56PM 43.1833 -78.7167 270° West 170 196 4,100  Level Toronto Center
09:57PM 43.1833 -78.7833 270° West 170 196 4,100  Level Toronto Center
09:58PM 43.1833 -78.8500 270° West 170 196 4,100  Level Toronto Center
09:59PM 43.1833 -78.9000 270° West 170 196 4,100  Level Toronto Center
10:00PM 43.1833 -78.9667 270° West 170 196 4,100  Level Toronto Center
10:01PM 43.1833 -79.0333 270° West 170 196 4,100  Level Toronto Center
10:02PM 43.1667 -79.1000 251° West 170 196 4,100  Level Toronto Center
10:03PM 43.1667 -79.1833 270° West 170 196 4,100  Level Toronto Center
10:04PM 43.1667 -79.2167 270° West 170 196 4,100  Level Toronto Center
10:05PM 43.1667 -79.2833 270° West 170 196 4,100  Level Toronto Center
10:06PM 43.1667 -79.3667 270° West 170 196 4,100  Level Toronto Center
10:07PM 43.1667 -79.4333 270° West 170 196 4,100 -120 Level Toronto Center
10:09PM 43.1833 -79.5500 281° West 169 194 3,800 -300 Descending Buffalo TRACON
10:09PM 43.1667 -79.5667 216° Southwest 180 207 3,600 -480 Descending Toronto Center
10:10PM 43.1667 -79.6333 270° West 180 207 3,200 -300 Descending Toronto Center
10:11PM 43.1667 -79.6833 270° West 180 207 3,000 -300 Descending Toronto Center
10:12PM 43.1833 -79.7500 289° West 170 196 2,700 -360 Descending Toronto Center
10:13PM 43.1833 -79.8167 270° West 180 207 2,300 -780 Descending Toronto Center
10:14PM 43.1833 -79.8833 270° West 170 196 1,200 -720 Descending Toronto Center
10:15PM 43.1667 -79.9000 216° Southwest 90 104 900 -180 Descending Toronto Center
10:16PM 43.1500 -79.9000 180° South 30 35 900  Level Toronto Center